createdAt,value
2022-11-20T00:01:24.892Z,7.63
2022-11-20T00:03:57.941Z,7.63
2022-11-20T00:06:25.690Z,7.60
2022-11-20T00:08:55.815Z,7.33
2022-11-20T00:11:25.395Z,6.60
2022-11-20T00:13:57.330Z,7.33
2022-11-20T00:16:26.637Z,8.47
2022-11-20T00:18:54.606Z,7.73
2022-11-20T00:21:24.805Z,7.70
2022-11-20T00:23:55.316Z,7.93
2022-11-20T00:26:24.043Z,8.77
2022-11-20T00:28:54.291Z,7.60
2022-11-20T00:31:21.095Z,8.40
2022-11-20T00:33:47.768Z,7.73
2022-11-20T00:36:23.989Z,8.70
2022-11-20T00:38:58.523Z,8.50
2022-11-20T00:41:27.203Z,8.87
2022-11-20T00:43:55.688Z,9.13
2022-11-20T00:46:26.311Z,8.50
2022-11-20T00:48:52.776Z,9.53
2022-11-20T00:51:22.744Z,10.37
2022-11-20T00:53:49.658Z,10.17
2022-11-20T00:56:19.373Z,9.83
2022-11-20T00:58:49.147Z,10.00
2022-11-20T01:01:26.320Z,9.27
2022-11-20T01:03:55.068Z,8.33
2022-11-20T01:06:35.102Z,8.00
2022-11-20T01:09:10.306Z,8.37
2022-11-20T01:11:40.409Z,7.50
2022-11-20T01:14:15.457Z,8.33
2022-11-20T01:16:46.944Z,7.80
2022-11-20T01:19:18.754Z,7.57
2022-11-20T01:21:52.223Z,8.77
2022-11-20T01:24:21.609Z,8.13
2022-11-20T01:26:51.368Z,7.73
2022-11-20T01:29:22.463Z,8.17
2022-11-20T01:31:49.289Z,8.03
2022-11-20T01:34:19.692Z,7.70
2022-11-20T01:36:47.356Z,8.47
2022-11-20T01:39:24.419Z,8.43
2022-11-20T01:42:11.285Z,9.07
2022-11-20T01:45:08.701Z,9.27
2022-11-20T01:47:46.636Z,8.33
2022-11-20T01:50:26.192Z,8.73
2022-11-20T01:53:08.799Z,8.50
2022-11-20T01:55:48.611Z,9.10
2022-11-20T01:58:17.055Z,8.70
2022-11-20T02:00:43.833Z,9.17
2022-11-20T02:03:16.785Z,8.77
2022-11-20T02:07:17.669Z,7.93
2022-11-20T02:09:44.564Z,7.40
2022-11-20T02:13:43.222Z,8.47
2022-11-20T02:16:33.598Z,8.03
2022-11-20T02:19:04.690Z,7.50
2022-11-20T02:24:12.325Z,8.30
2022-11-20T02:27:24.380Z,6.70
2022-11-20T02:30:03.705Z,7.70
2022-11-20T02:32:35.038Z,7.63
2022-11-20T02:35:46.767Z,7.60
2022-11-20T02:38:14.540Z,7.23
2022-11-20T02:40:41.704Z,7.30
2022-11-20T02:43:08.529Z,6.80
2022-11-20T02:45:35.143Z,6.77
2022-11-20T02:48:01.688Z,8.40
2022-11-20T02:50:28.232Z,8.67
2022-11-20T02:52:54.704Z,8.07
2022-11-20T02:55:21.177Z,8.83
2022-11-20T02:57:47.630Z,7.87
2022-11-20T03:00:14.902Z,8.33
2022-11-20T03:02:41.340Z,7.90
2022-11-20T03:05:08.531Z,7.80
2022-11-20T03:07:35.008Z,7.67
2022-11-20T03:10:01.532Z,8.40
2022-11-20T03:12:27.977Z,7.60
2022-11-20T03:14:54.452Z,8.00
2022-11-20T03:17:20.907Z,8.93
2022-11-20T03:19:47.448Z,8.83
2022-11-20T03:22:13.910Z,9.10
2022-11-20T03:24:40.391Z,9.70
2022-11-20T03:27:06.869Z,10.10
2022-11-20T03:29:33.348Z,8.77
2022-11-20T03:31:59.827Z,9.80
2022-11-20T03:34:26.287Z,9.80
2022-11-20T03:36:52.761Z,10.70
2022-11-20T03:39:19.551Z,11.27
2022-11-20T03:41:46.279Z,11.43
2022-11-20T03:44:12.949Z,11.57
2022-11-20T03:46:39.548Z,10.73
2022-11-20T03:49:06.042Z,10.30
2022-11-20T03:51:36.085Z,10.83
2022-11-20T03:54:08.403Z,10.50
2022-11-20T03:56:39.378Z,11.27
2022-11-20T03:59:06.746Z,11.60
2022-11-20T04:01:37.662Z,11.67
2022-11-20T04:04:05.069Z,10.57
2022-11-20T04:06:37.924Z,10.63
2022-11-20T04:09:05.820Z,11.07
2022-11-20T04:11:35.040Z,10.30
2022-11-20T04:14:06.078Z,9.97
2022-11-20T04:16:36.424Z,11.20
2022-11-20T04:19:06.396Z,11.40
2022-11-20T04:21:32.936Z,10.40
2022-11-20T04:23:59.593Z,10.57
2022-11-20T04:26:29.230Z,11.13
2022-11-20T04:28:56.485Z,9.90
2022-11-20T04:31:27.640Z,10.80
2022-11-20T04:33:54.529Z,9.70
2022-11-20T04:36:26.285Z,7.77
2022-11-20T04:38:57.153Z,6.17
2022-11-20T04:41:27.527Z,6.23
2022-11-20T04:43:59.525Z,6.80
2022-11-20T04:46:28.038Z,5.50
2022-11-20T04:48:54.488Z,5.77
2022-11-20T04:51:21.020Z,5.40
2022-11-20T04:53:47.472Z,6.27
2022-11-20T04:56:14.906Z,5.93
2022-11-20T04:58:42.208Z,6.37
2022-11-20T05:01:22.498Z,7.80
2022-11-20T05:03:49.852Z,8.10
2022-11-20T05:06:20.669Z,9.00
2022-11-20T05:08:47.399Z,8.00
2022-11-20T05:11:18.721Z,8.77
2022-11-20T05:13:45.256Z,7.90
2022-11-20T05:16:16.317Z,8.10
2022-11-20T05:18:43.458Z,8.83
2022-11-20T05:21:11.967Z,9.57
2022-11-20T05:23:39.423Z,10.10
2022-11-20T05:26:08.363Z,10.60
2022-11-20T05:28:35.142Z,10.40
2022-11-20T05:31:10.549Z,9.07
2022-11-20T05:33:39.798Z,9.37
2022-11-20T05:36:07.189Z,8.97
2022-11-20T05:38:33.822Z,9.70
2022-11-20T05:41:10.364Z,8.63
2022-11-20T05:43:39.562Z,9.17
2022-11-20T05:46:09.200Z,9.00
2022-11-20T05:48:36.919Z,8.80
2022-11-20T05:51:06.994Z,8.63
2022-11-20T05:53:34.975Z,8.07
2022-11-20T05:56:11.870Z,8.97
2022-11-20T05:58:39.328Z,10.13
2022-11-20T06:01:17.525Z,11.20
2022-11-20T06:03:47.557Z,10.47
2022-11-20T06:06:15.824Z,10.60
2022-11-20T06:08:42.915Z,9.97
2022-11-20T06:11:11.707Z,10.57
2022-11-20T06:13:42.278Z,10.60
2022-11-20T06:16:10.735Z,8.30
2022-11-20T06:18:37.790Z,8.93
2022-11-20T06:21:16.727Z,8.70
2022-11-20T06:23:44.173Z,8.07
2022-11-20T06:26:16.531Z,8.50
2022-11-20T06:28:42.972Z,8.67
2022-11-20T06:31:13.758Z,8.27
2022-11-20T06:33:41.009Z,8.03
2022-11-20T06:36:10.936Z,7.53
2022-11-20T06:38:38.790Z,8.00
2022-11-20T06:41:13.269Z,8.13
2022-11-20T06:43:39.745Z,7.93
2022-11-20T06:46:06.412Z,7.67
2022-11-20T06:48:33.182Z,8.27
2022-11-20T06:50:59.899Z,7.93
2022-11-20T06:53:26.604Z,7.90
2022-11-20T06:55:56.888Z,7.97
2022-11-20T06:58:23.681Z,9.57
2022-11-20T07:00:50.147Z,11.53
2022-11-20T07:03:16.635Z,10.80
2022-11-20T07:05:43.126Z,12.47
2022-11-20T07:08:09.613Z,12.57
2022-11-20T07:10:36.524Z,11.47
2022-11-20T07:13:03.147Z,10.93
2022-11-20T07:15:30.219Z,10.80
2022-11-20T07:17:59.377Z,9.17
2022-11-20T07:20:26.197Z,10.27
2022-11-20T07:22:59.083Z,10.60
2022-11-20T07:25:27.990Z,10.67
2022-11-20T07:28:01.267Z,10.67
2022-11-20T07:30:29.045Z,11.03
2022-11-20T07:32:56.753Z,11.73
2022-11-20T07:35:24.748Z,10.97
2022-11-20T07:37:51.197Z,10.83
2022-11-20T07:40:18.852Z,12.17
2022-11-20T07:42:53.378Z,12.13
2022-11-20T07:45:22.051Z,11.00
2022-11-20T07:47:49.537Z,10.50
2022-11-20T07:50:16.869Z,10.10
2022-11-20T07:52:43.539Z,10.73
2022-11-20T07:55:11.366Z,12.00
2022-11-20T07:57:38.072Z,13.33
2022-11-20T08:00:09.315Z,13.53
2022-11-20T08:02:41.864Z,13.50
2022-11-20T08:05:09.885Z,13.90
2022-11-20T08:07:41.418Z,14.03
2022-11-20T08:10:10.708Z,13.77
2022-11-20T08:13:02.435Z,13.27
2022-11-20T08:15:29.158Z,12.90
2022-11-20T08:18:29.956Z,13.40
2022-11-20T08:20:57.441Z,11.87
2022-11-20T08:23:23.992Z,11.80
2022-11-20T08:25:51.455Z,11.90
2022-11-20T08:28:21.324Z,12.17
2022-11-20T08:30:50.006Z,12.10
2022-11-20T08:33:18.944Z,12.60
2022-11-20T08:35:45.538Z,12.13
2022-11-20T08:38:11.991Z,11.23
2022-11-20T08:40:38.451Z,12.73
2022-11-20T08:43:04.891Z,12.17
2022-11-20T08:45:34.609Z,12.07
2022-11-20T08:48:03.241Z,12.37
2022-11-20T08:50:32.104Z,12.57
2022-11-20T08:53:06.199Z,13.57
2022-11-20T08:55:33.064Z,13.57
2022-11-20T08:58:03.965Z,14.03
2022-11-20T09:00:30.404Z,15.20
2022-11-20T09:02:57.693Z,15.53
2022-11-20T09:05:24.149Z,13.93
2022-11-20T09:07:50.627Z,15.17
2022-11-20T09:10:24.195Z,14.47
2022-11-20T09:12:51.978Z,15.07
2022-11-20T09:15:19.039Z,15.17
2022-11-20T09:17:56.554Z,17.00
2022-11-20T09:20:23.406Z,15.07
2022-11-20T09:22:49.988Z,14.33
2022-11-20T09:25:16.864Z,13.80
2022-11-20T09:27:44.314Z,13.17
2022-11-20T09:30:12.620Z,13.10
2022-11-20T09:32:42.616Z,12.13
2022-11-20T09:35:10.589Z,12.97
2022-11-20T09:37:37.079Z,12.60
2022-11-20T09:40:04.330Z,13.07
2022-11-20T09:44:25.127Z,13.90
2022-11-20T09:47:08.761Z,11.70
2022-11-20T09:50:27.103Z,9.40
2022-11-20T09:55:31.395Z,12.90
2022-11-20T09:57:59.857Z,12.23
2022-11-20T10:00:29.407Z,11.97
2022-11-20T10:04:10.725Z,13.27
2022-11-20T10:09:58.062Z,10.30
2022-11-20T10:15:32.820Z,9.90
2022-11-20T10:19:15.230Z,6.30
2022-11-20T10:22:31.326Z,6.63
2022-11-20T10:25:20.534Z,8.07
2022-11-20T10:29:33.443Z,7.97
2022-11-20T10:32:34.781Z,7.03
2022-11-20T10:35:17.330Z,7.00
2022-11-20T10:37:55.477Z,6.77
2022-11-20T10:41:31.971Z,7.47
2022-11-20T10:44:10.277Z,6.80
2022-11-20T10:46:45.036Z,7.03
2022-11-20T10:49:19.393Z,5.43
2022-11-20T10:53:55.697Z,5.50
2022-11-20T10:56:51.384Z,6.03
2022-11-20T11:01:23.341Z,6.23
2022-11-20T11:03:52.705Z,5.70
2022-11-20T11:06:55.334Z,5.67
2022-11-20T11:09:36.698Z,6.60
2022-11-20T11:12:11.127Z,6.67
2022-11-20T11:14:50.623Z,6.60
2022-11-20T11:17:34.289Z,6.37
2022-11-20T11:20:17.806Z,6.43
2022-11-20T11:23:03.136Z,6.87
2022-11-20T11:25:37.233Z,7.33
2022-11-20T11:28:28.086Z,7.40
2022-11-20T11:30:55.125Z,7.87
2022-11-20T11:33:27.911Z,7.90
2022-11-20T11:36:02.876Z,8.40
2022-11-20T11:38:43.348Z,7.23
2022-11-20T11:41:25.330Z,7.80
2022-11-20T11:44:34.380Z,7.97
2022-11-20T11:47:02.768Z,6.77
2022-11-20T11:49:29.270Z,6.60
2022-11-20T11:52:21.427Z,6.10
2022-11-20T11:54:59.903Z,5.97
2022-11-20T11:59:31.340Z,5.27
2022-11-20T12:02:34.791Z,4.17
2022-11-20T12:05:29.661Z,3.47
2022-11-20T12:08:24.129Z,3.90
2022-11-20T12:11:13.347Z,3.80
2022-11-20T12:14:37.419Z,4.63
2022-11-20T12:17:04.527Z,4.17
2022-11-20T12:19:34.987Z,4.07
2022-11-20T12:22:41.728Z,4.00
2022-11-20T12:25:44.816Z,4.43
2022-11-20T12:30:30.820Z,3.30
2022-11-20T12:33:39.899Z,4.00
2022-11-20T12:37:07.427Z,4.43
2022-11-20T12:39:42.922Z,4.70
2022-11-20T12:44:57.128Z,4.97
2022-11-20T12:49:44.902Z,5.37
2022-11-20T12:53:40.997Z,5.67
2022-11-20T12:58:49.371Z,5.80
2022-11-20T13:01:54.245Z,4.77
2022-11-20T13:06:30.836Z,4.67
2022-11-20T13:08:57.446Z,4.60
2022-11-20T13:11:51.840Z,4.70
2022-11-20T13:15:37.219Z,5.03
2022-11-20T13:18:09.017Z,3.90
2022-11-20T13:20:41.193Z,4.63
2022-11-20T13:23:07.666Z,4.30
2022-11-20T13:25:40.214Z,3.77
2022-11-20T13:28:30.467Z,4.20
2022-11-20T13:30:58.932Z,5.97
2022-11-20T13:33:38.441Z,6.20
2022-11-20T13:36:21.132Z,6.47
2022-11-20T13:38:53.954Z,6.47
2022-11-20T13:42:01.755Z,5.80
2022-11-20T13:44:39.709Z,5.90
2022-11-20T13:47:26.501Z,6.27
2022-11-20T13:49:55.833Z,5.83
2022-11-20T13:54:23.063Z,5.87
2022-11-20T13:57:25.017Z,5.60
2022-11-20T14:00:19.093Z,5.70
2022-11-20T14:05:55.002Z,5.83
2022-11-20T14:08:45.955Z,5.90
2022-11-20T14:11:27.663Z,7.27
2022-11-20T14:14:19.277Z,6.00
2022-11-20T14:16:46.790Z,6.60
2022-11-20T14:19:30.866Z,7.27
2022-11-20T14:22:19.183Z,6.67
2022-11-20T14:24:47.322Z,7.40
2022-11-20T14:27:21.054Z,7.10
2022-11-20T14:29:50.689Z,7.57
2022-11-20T14:32:22.524Z,7.93
2022-11-20T14:34:51.257Z,8.10
2022-11-20T14:37:32.692Z,8.20
2022-11-20T14:39:59.286Z,8.60
2022-11-20T14:42:28.853Z,9.10
2022-11-20T14:45:00.366Z,7.60
2022-11-20T14:47:31.357Z,7.20
2022-11-20T14:49:59.305Z,6.60
2022-11-20T14:52:28.281Z,6.93
2022-11-20T14:55:00.889Z,7.13
2022-11-20T14:57:33.966Z,7.30
2022-11-20T15:00:35.206Z,7.77
2022-11-20T15:03:01.708Z,7.40
2022-11-20T15:05:50.352Z,7.67
2022-11-20T15:08:17.925Z,7.27
2022-11-20T15:10:50.736Z,7.03
2022-11-20T15:13:53.843Z,5.87
2022-11-20T15:16:24.156Z,5.97
2022-11-20T15:18:51.439Z,6.47
2022-11-20T15:21:21.221Z,6.90
2022-11-20T15:23:48.378Z,6.73
2022-11-20T15:26:23.785Z,7.33
2022-11-20T15:28:50.375Z,7.77
2022-11-20T15:31:21.993Z,9.33
2022-11-20T15:33:49.251Z,8.37
2022-11-20T15:36:15.968Z,7.03
2022-11-20T15:38:42.457Z,6.10
2022-11-20T15:41:10.457Z,6.70
2022-11-20T15:43:36.974Z,6.80
2022-11-20T15:46:11.347Z,6.80
2022-11-20T15:48:51.364Z,13.73
2022-11-20T15:51:39.584Z,13.00
2022-11-20T15:54:15.256Z,7.93
2022-11-20T15:56:41.998Z,7.57
2022-11-20T15:59:08.451Z,7.67
2022-11-20T16:01:35.381Z,7.20
2022-11-20T16:04:02.163Z,8.30
2022-11-20T16:06:28.615Z,7.90
2022-11-20T16:08:55.092Z,7.93
2022-11-20T16:11:21.589Z,8.87
2022-11-20T16:14:07.728Z,7.80
2022-11-20T16:16:37.267Z,7.63
2022-11-20T16:19:03.878Z,7.90
2022-11-20T16:21:31.342Z,8.30
2022-11-20T16:24:06.448Z,8.50
2022-11-20T16:26:34.188Z,9.83
2022-11-20T16:29:03.636Z,9.13
2022-11-20T16:31:30.338Z,10.60
2022-11-20T16:34:00.832Z,9.77
2022-11-20T16:36:29.459Z,10.53
2022-11-20T16:38:59.647Z,11.07
2022-11-20T16:41:30.111Z,10.90
2022-11-20T16:44:02.824Z,9.63
2022-11-20T16:46:31.881Z,9.27
2022-11-20T16:49:05.154Z,10.00
2022-11-20T16:51:35.633Z,9.23
2022-11-20T16:54:07.923Z,9.00
2022-11-20T16:56:35.429Z,9.50
2022-11-20T16:59:03.114Z,9.33
2022-11-20T17:01:31.164Z,9.23
2022-11-20T17:04:07.251Z,9.83
2022-11-20T17:06:37.016Z,9.87
2022-11-20T17:09:04.546Z,10.17
2022-11-20T17:11:32.682Z,12.47
2022-11-20T17:13:59.871Z,12.37
2022-11-20T17:16:26.500Z,16.50
2022-11-20T17:19:02.956Z,19.50
2022-11-20T17:21:38.554Z,21.30
2022-11-20T17:24:09.419Z,21.87
2022-11-20T17:26:38.430Z,21.20
2022-11-20T17:29:10.219Z,21.40
2022-11-20T17:31:38.054Z,15.10
2022-11-20T17:34:07.045Z,12.47
2022-11-20T17:36:34.018Z,14.50
2022-11-20T17:39:00.523Z,15.63
2022-11-20T17:41:29.652Z,13.93
2022-11-20T17:43:59.074Z,12.43
2022-11-20T17:46:31.859Z,13.43
2022-11-20T17:48:58.846Z,13.40
2022-11-20T17:51:31.575Z,13.27
2022-11-20T17:54:01.692Z,14.77
2022-11-20T17:56:51.407Z,20.47
2022-11-20T17:59:18.583Z,24.87
2022-11-20T18:01:45.605Z,22.93
2022-11-20T18:04:12.768Z,21.60
2022-11-20T18:06:39.688Z,21.50
2022-11-20T18:09:06.823Z,21.00
2022-11-20T18:11:37.211Z,21.77
2022-11-20T18:14:28.155Z,22.20
2022-11-20T18:17:15.128Z,21.60
2022-11-20T18:20:01.203Z,23.20
2022-11-20T18:22:47.992Z,21.07
2022-11-20T18:25:14.509Z,24.37
2022-11-20T18:27:41.002Z,25.73
2022-11-20T18:30:08.775Z,21.30
2022-11-20T18:32:35.446Z,21.33
2022-11-20T18:35:01.921Z,19.50
2022-11-20T18:37:28.368Z,21.40
2022-11-20T18:39:55.786Z,20.87
2022-11-20T18:42:40.450Z,21.53
2022-11-20T18:45:07.731Z,19.33
2022-11-20T18:47:39.324Z,19.77
2022-11-20T18:50:08.061Z,19.90
2022-11-20T18:52:41.011Z,20.13
2022-11-20T18:55:08.128Z,18.53
2022-11-20T18:57:34.874Z,19.67
2022-11-20T19:00:07.988Z,18.50
2022-11-20T19:02:41.005Z,17.07
2022-11-20T19:05:12.136Z,18.77
2022-11-20T19:07:39.020Z,18.70
2022-11-20T19:10:06.527Z,19.03
2022-11-20T19:12:33.172Z,18.87
2022-11-20T19:14:59.650Z,19.87
2022-11-20T19:17:26.134Z,19.20
2022-11-20T19:19:54.113Z,19.90
2022-11-20T19:22:20.972Z,19.43
2022-11-20T19:24:47.454Z,20.37
2022-11-20T19:27:13.913Z,18.90
2022-11-20T19:29:40.389Z,19.93
2022-11-20T19:32:06.833Z,20.50
2022-11-20T19:34:33.319Z,19.00
2022-11-20T19:37:00.312Z,19.13
2022-11-20T19:39:27.095Z,19.70
2022-11-20T19:41:53.750Z,19.23
2022-11-20T19:44:20.235Z,19.07
2022-11-20T19:46:46.709Z,22.77
2022-11-20T19:49:14.353Z,24.07
2022-11-20T19:51:50.212Z,25.80
2022-11-20T19:54:17.180Z,25.87
2022-11-20T19:56:44.658Z,28.53
2022-11-20T19:59:11.254Z,27.87
2022-11-20T20:01:37.736Z,28.03
2022-11-20T20:04:05.190Z,27.43
2022-11-20T20:06:34.236Z,27.60
2022-11-20T20:09:11.119Z,27.60
2022-11-20T20:11:38.896Z,27.30
2022-11-20T20:14:12.825Z,24.43
2022-11-20T20:16:39.752Z,23.37
2022-11-20T20:19:06.523Z,19.33
2022-11-20T20:21:35.540Z,18.90
2022-11-20T20:24:02.867Z,17.40
2022-11-20T20:26:31.240Z,17.77
2022-11-20T20:28:58.563Z,16.50
2022-11-20T20:31:28.340Z,18.40
2022-11-20T20:33:55.520Z,18.57
2022-11-20T20:36:23.581Z,19.00
2022-11-20T20:38:55.707Z,18.07
2022-11-20T20:41:24.141Z,19.27
2022-11-20T20:44:09.870Z,17.87
2022-11-20T20:46:36.399Z,18.30
2022-11-20T20:49:03.165Z,18.97
2022-11-20T20:51:29.723Z,18.10
2022-11-20T20:53:56.280Z,18.50
2022-11-20T20:56:22.738Z,17.03
2022-11-20T20:58:49.213Z,14.60
2022-11-20T21:01:18.269Z,13.57
2022-11-20T21:03:45.019Z,15.17
2022-11-20T21:06:12.796Z,15.73
2022-11-20T21:08:42.085Z,16.03
2022-11-20T21:11:14.896Z,17.90
2022-11-20T21:13:44.000Z,16.70
2022-11-20T21:16:12.267Z,22.00
2022-11-20T21:18:38.967Z,27.00
2022-11-20T21:21:26.046Z,19.33
2022-11-20T21:23:52.954Z,17.00
2022-11-20T21:26:21.121Z,17.80
2022-11-20T21:28:49.059Z,15.70
2022-11-20T21:31:21.318Z,17.00
2022-11-20T21:33:50.284Z,16.87
2022-11-20T21:36:22.731Z,16.07
2022-11-20T21:38:52.095Z,14.83
2022-11-20T21:41:18.861Z,17.57
2022-11-20T21:43:45.701Z,16.90
2022-11-20T21:46:16.001Z,18.47
2022-11-20T21:48:45.175Z,18.70
2022-11-20T21:51:20.899Z,17.23
2022-11-20T21:53:49.260Z,14.23
2022-11-20T21:56:20.602Z,14.20
2022-11-20T21:58:48.175Z,14.53
2022-11-20T22:01:21.365Z,15.03
2022-11-20T22:03:56.028Z,16.47
2022-11-20T22:06:24.858Z,16.50
2022-11-20T22:08:51.498Z,15.67
2022-11-20T22:11:21.223Z,16.80
2022-11-20T22:14:06.905Z,14.83
2022-11-20T22:16:35.394Z,17.73
2022-11-20T22:19:02.512Z,17.13
2022-11-20T22:21:30.357Z,18.10
2022-11-20T22:23:57.820Z,18.53
2022-11-20T22:26:28.320Z,18.03
2022-11-20T22:28:58.062Z,18.43
2022-11-20T22:31:28.537Z,19.53
2022-11-20T22:33:56.579Z,18.83
2022-11-20T22:36:27.688Z,19.07
2022-11-20T22:38:54.734Z,18.53
2022-11-20T22:41:26.822Z,18.47
2022-11-20T22:44:04.642Z,16.27
2022-11-20T22:46:34.613Z,16.03
2022-11-20T22:49:05.341Z,16.60
2022-11-20T22:51:34.674Z,16.47
2022-11-20T22:54:02.712Z,15.53
2022-11-20T22:56:29.178Z,16.40
2022-11-20T22:58:55.688Z,15.73
2022-11-20T23:01:34.353Z,14.27
2022-11-20T23:04:04.954Z,15.67
2022-11-20T23:06:35.389Z,16.67
2022-11-20T23:09:07.399Z,16.20
2022-11-20T23:11:34.896Z,13.47
2022-11-20T23:14:06.143Z,15.70
2022-11-20T23:16:34.150Z,14.13
2022-11-20T23:19:04.930Z,14.87
2022-11-20T23:21:32.983Z,13.43
2022-11-20T23:24:00.365Z,12.67
2022-11-20T23:26:34.366Z,12.43
2022-11-20T23:29:01.570Z,12.93
2022-11-20T23:31:31.252Z,11.80
2022-11-20T23:33:58.935Z,11.47
2022-11-20T23:36:26.004Z,11.57
2022-11-20T23:38:52.493Z,11.13
2022-11-20T23:41:18.983Z,12.07
2022-11-20T23:43:45.424Z,12.07
2022-11-20T23:46:16.242Z,14.03
2022-11-20T23:48:44.230Z,18.93
2022-11-20T23:51:10.675Z,13.40
2022-11-20T23:53:37.187Z,12.57
2022-11-20T23:56:05.390Z,10.83
2022-11-20T23:58:35.406Z,10.87
